Time;durP1;ratioP1;P1;durP2;ratioP2;P2;SDS_P1;SDS_P2;PMS_P1;PMS_P2;Temp;Humidity;BMP_temperature;BMP_pressure;BME280_temperature;BME280_humidity;BME280_pressure;Samples;Min_cycle;Max_cycle;Signal;HPM_P1;HPM_P2
2021/01/02 00:01:35;;;;;;;9.13;8.23;;;;;;;4.61;59.69;97372.28;8302195;28;20236;-77
2021/01/02 00:05:44;;;;;;;11.07;8.87;;;;;;;4.42;59.52;97370.25;8303717;28;20200;-77
2021/01/02 00:09:46;;;;;;;10.30;9.30;;;;;;;4.45;60.11;97371.88;8301746;28;20229;-77
2021/01/02 00:14:03;;;;;;;9.27;8.37;;;;;;;4.47;59.99;97370.97;8302219;28;20240;-77
2021/01/02 00:18:14;;;;;;;10.97;9.40;;;;;;;4.37;60.08;97366.97;8301663;28;20208;-77
2021/01/02 00:22:29;;;;;;;14.20;9.97;;;;;;;4.36;60.10;97370.44;8301906;28;20237;-77
2021/01/02 00:26:34;;;;;;;10.87;9.70;;;;;;;4.29;60.04;97376.63;8301984;28;20185;-77
2021/01/02 00:30:53;;;;;;;9.80;8.43;;;;;;;4.26;59.66;97369.84;8301836;28;20201;-77
2021/01/02 00:35:05;;;;;;;10.20;9.20;;;;;;;4.29;59.82;97377.44;8300840;28;20209;-77
2021/01/02 00:39:14;;;;;;;12.03;9.50;;;;;;;4.31;59.86;97374.84;8301855;28;20208;-76
2021/01/02 00:43:16;;;;;;;10.03;8.80;;;;;;;4.35;59.82;97373.88;8301661;28;20229;-76
2021/01/02 00:47:18;;;;;;;10.47;9.47;;;;;;;4.25;60.04;97378.41;8301274;28;20208;-76
2021/01/02 00:51:20;;;;;;;10.30;9.27;;;;;;;4.34;60.20;97371.34;8300910;28;20220;-78
2021/01/02 00:55:32;;;;;;;10.10;9.10;;;;;;;4.24;59.96;97379.28;8301906;28;20244;-77
2021/01/02 00:59:58;;;;;;;10.47;9.47;;;;;;;4.36;59.85;97383.25;8301790;28;20209;-77
2021/01/02 01:04:19;;;;;;;10.57;9.43;;;;;;;4.13;59.95;97389.00;8301381;28;20190;-77
2021/01/02 01:08:23;;;;;;;12.00;9.57;;;;;;;4.12;59.80;97382.22;8301853;28;20193;-76
2021/01/02 01:12:28;;;;;;;10.67;9.57;;;;;;;4.11;59.97;97383.06;8301560;28;20668;-77
2021/01/02 01:16:36;;;;;;;10.47;9.47;;;;;;;4.18;59.87;97396.56;8302015;28;20233;-77
2021/01/02 01:20:43;;;;;;;11.83;9.40;;;;;;;4.17;59.79;97400.88;8298140;28;20239;-77
2021/01/02 01:24:48;;;;;;;10.60;9.50;;;;;;;4.04;59.69;97396.97;8300464;28;20212;-77
2021/01/02 01:28:55;;;;;;;10.73;9.63;;;;;;;3.98;59.97;97399.66;8301062;28;20216;-76
2021/01/02 01:33:00;;;;;;;10.50;9.50;;;;;;;4.05;60.26;97393.50;8300990;28;20577;-77
2021/01/02 01:37:04;;;;;;;10.77;9.77;;;;;;;4.04;60.09;97402.09;8300718;28;20232;-77
2021/01/02 01:41:12;;;;;;;25.93;7.57;;;;;;;6.02;86.47;97400.25;8300747;28;20221;-77
2021/01/02 01:45:28;;;;;;;10.00;9.10;;;;;;;5.42;59.61;97408.22;8303431;28;20186;-77
2021/01/02 01:50:12;;;;;;;10.97;9.97;;;;;;;4.78;58.81;97411.09;8306674;28;20186;-77
2021/01/02 01:54:37;;;;;;;10.53;9.47;;;;;;;4.35;58.98;97411.50;8306789;28;20205;-77
2021/01/02 01:59:08;;;;;;;10.10;9.10;;;;;;;4.18;59.65;97411.97;8306418;28;20212;-77
2021/01/02 02:03:22;;;;;;;9.97;9.07;;;;;;;4.27;59.62;97406.56;8306108;28;20225;-76
2021/01/02 02:07:39;;;;;;;10.17;9.17;;;;;;;4.25;59.92;97423.72;8306649;28;20205;-77
2021/01/02 02:11:46;;;;;;;11.93;9.20;;;;;;;4.16;59.81;97414.56;8305915;28;20229;-77
2021/01/02 02:15:49;;;;;;;9.80;8.90;;;;;;;4.15;59.63;97406.91;8304949;28;20229;-77
2021/01/02 02:19:56;;;;;;;11.73;8.90;;;;;;;4.08;59.65;97401.94;8305301;28;20205;-77
2021/01/02 02:24:00;;;;;;;9.57;8.67;;;;;;;4.03;59.78;97398.66;8304405;28;20208;-77
2021/01/02 02:28:03;;;;;;;10.13;9.13;;;;;;;4.00;59.65;97409.03;8304416;28;20204;-77
2021/01/02 02:32:09;;;;;;;11.40;9.57;;;;;;;4.02;60.06;97409.81;8304645;28;20212;-76
2021/01/02 02:36:12;;;;;;;10.40;9.43;;;;;;;4.00;59.67;97405.59;8304338;28;20209;-77
2021/01/02 02:40:17;;;;;;;10.83;9.73;;;;;;;3.92;59.50;97413.47;8304456;28;20225;-77
2021/01/02 02:44:22;;;;;;;11.20;9.57;;;;;;;3.88;59.85;97409.31;8304307;28;20198;-77
2021/01/02 02:48:25;;;;;;;11.33;9.70;;;;;;;3.91;59.72;97416.94;8303799;28;20204;-77
2021/01/02 02:52:34;;;;;;;10.50;9.40;;;;;;;3.95;59.77;97415.97;8303700;28;20210;-77
2021/01/02 02:56:36;;;;;;;10.17;9.07;;;;;;;3.88;60.23;97409.31;8303673;28;20365;-77
2021/01/02 03:00:39;;;;;;;10.33;9.23;;;;;;;3.96;59.89;97406.56;8303302;28;20232;-77
2021/01/02 03:04:40;;;;;;;10.90;9.70;;;;;;;3.97;60.17;97418.50;8303103;28;20201;-77
2021/01/02 03:08:43;;;;;;;10.27;9.13;;;;;;;3.96;60.44;97417.66;8303411;28;20638;-77
2021/01/02 03:12:46;;;;;;;10.40;9.40;;;;;;;4.06;60.46;97420.81;8303011;28;20225;-77
2021/01/02 03:16:48;;;;;;;9.90;9.00;;;;;;;4.06;60.32;97418.25;8303121;28;20244;-77
2021/01/02 03:20:49;;;;;;;9.97;9.03;;;;;;;4.08;60.04;97414.75;8303170;28;20225;-77
2021/01/02 03:24:52;;;;;;;10.20;9.30;;;;;;;4.04;60.30;97428.53;8303148;28;20244;-77
2021/01/02 03:28:54;;;;;;;11.47;9.90;;;;;;;4.06;60.40;97421.66;8302466;28;20645;-77
2021/01/02 03:32:56;;;;;;;11.83;10.07;;;;;;;4.01;60.66;97431.19;8302531;28;20224;-77
2021/01/02 03:36:58;;;;;;;11.23;10.23;;;;;;;4.60;59.13;97416.75;8300111;28;20416;-77
2021/01/02 03:41:01;;;;;;;10.80;9.80;;;;;;;4.24;60.65;97411.78;8301802;28;20232;-77
2021/01/02 03:45:03;;;;;;;11.97;10.87;;;;;;;4.08;60.41;97411.38;8302332;28;20205;-77
2021/01/02 03:49:05;;;;;;;11.43;10.17;;;;;;;4.02;60.85;97407.25;8301825;28;20521;-77
2021/01/02 03:53:07;;;;;;;11.37;10.27;;;;;;;4.14;61.13;97406.06;8301130;28;20209;-77
2021/01/02 03:57:09;;;;;;;10.87;9.80;;;;;;;4.15;60.70;97400.06;8301416;28;20205;-77
2021/01/02 04:01:12;;;;;;;11.20;10.10;;;;;;;4.11;61.24;97396.75;8302108;28;20225;-77
2021/01/02 04:05:14;;;;;;;11.03;9.97;;;;;;;4.16;61.71;97401.75;8301089;28;20205;-77
2021/01/02 04:09:16;;;;;;;11.20;10.10;;;;;;;4.20;61.75;97405.06;8301910;28;20205;-78
2021/01/02 04:13:18;;;;;;;11.23;10.10;;;;;;;4.17;61.97;97410.25;8301081;28;20237;-77
2021/01/02 04:17:20;;;;;;;11.20;10.10;;;;;;;4.27;61.82;97407.41;8301332;28;20205;-77
2021/01/02 04:21:22;;;;;;;10.70;9.60;;;;;;;4.40;61.81;97410.47;8300199;28;20684;-78
2021/01/02 04:25:23;;;;;;;12.20;10.50;;;;;;;4.41;62.18;97417.25;8300369;28;20665;-78
2021/01/02 04:29:26;;;;;;;11.83;10.63;;;;;;;4.41;62.83;97417.25;8300817;28;20201;-77
2021/01/02 04:33:28;;;;;;;11.60;10.40;;;;;;;4.45;62.95;97416.28;8300892;28;20205;-78
2021/01/02 04:37:30;;;;;;;12.10;10.40;;;;;;;4.43;63.02;97415.50;8301260;28;20595;-78
2021/01/02 04:41:33;;;;;;;12.90;11.60;;;;;;;4.49;63.07;97423.03;8299972;28;20229;-78
2021/01/02 04:45:36;;;;;;;12.90;11.23;;;;;;;4.45;62.69;97416.28;8300987;28;20544;-77
2021/01/02 04:49:37;;;;;;;12.13;10.93;;;;;;;4.45;62.71;97408.59;8300780;28;20531;-77
2021/01/02 04:53:39;;;;;;;13.20;11.37;;;;;;;4.54;62.93;97415.19;8300611;28;20212;-77
2021/01/02 04:57:43;;;;;;;12.53;11.33;;;;;;;4.49;63.14;97411.91;8300684;28;20643;-77
2021/01/02 05:01:49;;;;;;;13.00;11.67;;;;;;;4.53;62.98;97417.81;8300090;28;20236;-77
2021/01/02 05:05:51;;;;;;;13.20;11.80;;;;;;;4.47;63.28;97409.44;8300658;28;20228;-77
2021/01/02 05:09:53;;;;;;;12.33;11.07;;;;;;;4.57;63.21;97407.44;8300720;28;20557;-77
2021/01/02 05:14:00;;;;;;;12.83;11.63;;;;;;;4.56;63.27;97407.47;8300169;28;20248;-77
2021/01/02 05:18:03;;;;;;;15.23;12.37;;;;;;;4.53;63.56;97415.25;8300351;28;20220;-78
2021/01/02 05:22:05;;;;;;;13.57;12.17;;;;;;;4.54;63.37;97419.50;8305603;28;20231;-77
2021/01/02 05:26:08;;;;;;;12.77;11.37;;;;;;;4.54;63.48;97428.03;8306838;28;20201;-77
2021/01/02 05:30:25;;;;;;;12.73;11.40;;;;;;;4.63;63.58;97429.50;8306532;28;20208;-77
2021/01/02 05:34:29;;;;;;;12.93;11.60;;;;;;;4.64;63.20;97424.28;8306070;28;20201;-77
2021/01/02 05:38:31;;;;;;;13.80;12.00;;;;;;;4.55;63.57;97434.84;8304579;28;20208;-77
2021/01/02 05:42:33;;;;;;;13.30;11.50;;;;;;;4.62;63.19;97436.31;8305334;28;20224;-77
2021/01/02 05:46:35;;;;;;;13.90;12.50;;;;;;;4.63;63.27;97435.44;8305424;28;20244;-77
2021/01/02 05:50:42;;;;;;;12.40;11.20;;;;;;;4.71;62.99;97430.09;8304818;28;20205;-77
2021/01/02 05:54:49;;;;;;;13.37;11.87;;;;;;;4.58;63.56;97421.09;8306278;28;20205;-77
2021/01/02 05:58:55;;;;;;;13.23;11.87;;;;;;;4.56;63.42;97417.72;8306064;28;20205;-77
2021/01/02 06:02:57;;;;;;;12.03;10.83;;;;;;;4.59;63.63;97413.34;8306047;28;20643;-77
2021/01/02 06:07:07;;;;;;;12.93;11.53;;;;;;;4.58;63.99;97418.53;8306355;28;20267;-78
2021/01/02 06:11:11;;;;;;;14.10;11.67;;;;;;;4.45;64.07;97423.97;8304683;28;20228;-77
2021/01/02 06:15:16;;;;;;;13.10;11.80;;;;;;;4.52;63.90;97427.22;8305663;28;20236;-77
2021/01/02 06:19:18;;;;;;;13.23;11.73;;;;;;;4.52;63.82;97429.78;8304578;28;20537;-76
2021/01/02 06:23:21;;;;;;;13.90;12.07;;;;;;;4.52;63.64;97434.09;8305073;28;20221;-76
2021/01/02 06:27:22;;;;;;;13.70;12.07;;;;;;;4.54;63.96;97432.31;8304718;28;20205;-77
2021/01/02 06:31:24;;;;;;;15.17;12.43;;;;;;;4.53;64.05;97433.19;8303627;28;20217;-76
2021/01/02 06:35:26;;;;;;;14.27;11.97;;;;;;;4.45;64.19;97425.72;8304575;28;20201;-77
2021/01/02 06:39:31;;;;;;;13.20;11.80;;;;;;;4.56;64.29;97444.19;8304623;28;20197;-77
2021/01/02 06:43:42;;;;;;;13.27;11.77;;;;;;;4.61;63.99;97455.19;8304805;28;20221;-76
2021/01/02 06:47:43;;;;;;;13.20;11.87;;;;;;;4.68;63.74;97458.41;8304356;28;20660;-76
2021/01/02 06:51:50;;;;;;;13.37;11.97;;;;;;;4.66;63.61;97452.47;8303599;28;20212;-77
2021/01/02 06:56:00;;;;;;;15.13;12.33;;;;;;;4.70;63.64;97457.50;8304133;28;20284;-77
2021/01/02 07:00:20;;;;;;;13.90;12.40;;;;;;;4.69;63.62;97454.97;8303836;28;20201;-76
2021/01/02 07:04:37;;;;;;;15.13;12.37;;;;;;;4.71;63.27;97458.31;8303352;28;20266;-77
2021/01/02 07:08:43;;;;;;;13.57;12.17;;;;;;;4.66;63.37;97453.34;8303178;28;20213;-77
2021/01/02 07:12:45;;;;;;;13.03;11.73;;;;;;;4.75;63.15;97459.91;8303078;28;20221;-77
2021/01/02 07:16:50;;;;;;;13.97;12.47;;;;;;;4.78;63.20;97446.13;8302935;28;20237;-77
2021/01/02 07:20:51;;;;;;;15.10;12.80;;;;;;;4.79;62.81;97447.84;8303171;28;20283;-77
2021/01/02 07:24:57;;;;;;;14.17;12.67;;;;;;;4.77;63.42;97444.47;8291712;28;20209;-77
2021/01/02 07:29:01;;;;;;;13.33;11.60;;;;;;;4.80;63.45;97450.34;8271001;28;20201;-77
2021/01/02 07:33:03;;;;;;;15.20;12.17;;;;;;;4.81;63.15;97456.31;8269865;28;20241;-77
2021/01/02 07:37:07;;;;;;;13.93;12.43;;;;;;;4.82;63.19;97463.16;8270366;28;20206;-77
2021/01/02 07:41:09;;;;;;;14.67;13.10;;;;;;;4.72;63.47;97467.69;8275826;28;20234;-77
2021/01/02 07:45:13;;;;;;;14.20;12.70;;;;;;;4.63;63.71;97476.50;8300772;28;20230;-77
2021/01/02 07:49:17;;;;;;;12.33;11.03;;;;;;;4.77;63.89;97468.41;8300960;28;20228;-77
2021/01/02 07:53:18;;;;;;;13.97;12.50;;;;;;;4.66;63.69;97476.41;8300358;28;20212;-77
2021/01/02 07:57:25;;;;;;;14.73;13.13;;;;;;;4.81;63.47;97474.28;8300622;28;20208;-77
2021/01/02 08:01:28;;;;;;;14.40;12.23;;;;;;;4.87;63.36;97484.34;8300381;28;20221;-77
2021/01/02 08:05:30;;;;;;;14.80;13.07;;;;;;;4.87;63.09;97481.78;8292759;28;20193;-77
2021/01/02 08:09:33;;;;;;;15.27;13.67;;;;;;;4.80;63.37;97481.16;8300909;28;20212;-77
2021/01/02 08:13:35;;;;;;;14.07;12.67;;;;;;;4.88;63.37;97491.19;8300383;28;20229;-77
2021/01/02 08:17:41;;;;;;;14.37;12.83;;;;;;;4.88;63.07;97491.19;8301035;28;20659;-77
2021/01/02 08:21:43;;;;;;;15.07;13.47;;;;;;;4.90;63.35;97490.25;8301355;28;20229;-77
2021/01/02 08:25:45;;;;;;;20.87;17.80;;;;;;;4.90;63.24;97489.41;8300987;28;20201;-77
2021/01/02 08:29:46;;;;;;;27.63;21.60;;;;;;;4.88;63.29;97497.16;8301303;28;20201;-77
2021/01/02 08:33:51;;;;;;;23.77;20.80;;;;;;;4.94;63.05;97496.13;8302068;28;20232;-77
2021/01/02 08:38:03;;;;;;;31.77;22.67;;;;;;;4.86;63.21;97488.66;8301858;28;20193;-78
2021/01/02 08:42:06;;;;;;;20.70;16.97;;;;;;;4.81;63.24;97495.63;8301972;28;20548;-77
2021/01/02 08:46:09;;;;;;;18.03;16.03;;;;;;;4.85;63.25;97504.91;8300495;28;20205;-77
2021/01/02 08:50:14;;;;;;;16.67;14.90;;;;;;;4.89;63.72;97498.84;8300595;28;20197;-77
2021/01/02 08:54:16;;;;;;;18.27;15.23;;;;;;;4.80;63.46;97498.28;8300441;28;20639;-77
2021/01/02 08:58:29;;;;;;;16.50;14.80;;;;;;;4.96;62.94;97499.50;8300141;28;20539;-77
2021/01/02 09:02:31;;;;;;;16.70;15.03;;;;;;;4.90;63.42;97502.25;8267044;28;20697;-77
2021/01/02 09:06:34;;;;;;;15.33;13.83;;;;;;;4.88;62.93;97499.72;8267731;28;20201;-77
2021/01/02 09:10:37;;;;;;;15.20;13.70;;;;;;;4.85;62.95;97504.09;8267160;28;20206;-77
2021/01/02 09:14:49;;;;;;;15.57;14.07;;;;;;;4.97;62.83;97490.91;8289705;28;20236;-77
2021/01/02 09:18:51;;;;;;;15.67;14.07;;;;;;;4.89;63.41;97491.16;8300264;28;20621;-77
2021/01/02 09:22:54;;;;;;;15.20;13.60;;;;;;;5.14;62.95;97481.84;8299103;28;20311;-77
2021/01/02 09:26:56;;;;;;;17.07;14.50;;;;;;;5.14;62.99;97487.84;8300609;28;20279;-78
2021/01/02 09:30:58;;;;;;;15.27;13.67;;;;;;;5.02;63.26;97485.63;8299747;28;20558;-76
2021/01/02 09:35:00;;;;;;;16.03;14.30;;;;;;;4.99;63.00;97488.28;8299191;28;20216;-76
2021/01/02 09:39:03;;;;;;;16.20;13.90;;;;;;;5.12;62.78;97492.16;8299129;28;20197;-76
2021/01/02 09:43:08;;;;;;;15.87;14.27;;;;;;;5.01;62.79;97489.94;8298986;28;20229;-76
2021/01/02 09:47:10;;;;;;;14.97;13.47;;;;;;;5.15;62.79;97489.53;8298820;28;20197;-76
2021/01/02 09:51:12;;;;;;;16.77;15.03;;;;;;;4.72;62.86;97505.31;8293662;28;20205;-76
2021/01/02 09:55:14;;;;;;;15.97;14.37;;;;;;;5.04;62.79;97499.25;8299293;28;20201;-76
2021/01/02 09:59:17;;;;;;;16.43;14.67;;;;;;;5.12;63.11;97493.91;8299197;28;20205;-77
2021/01/02 10:03:18;;;;;;;16.63;15.00;;;;;;;4.96;63.18;97489.22;8298913;28;20221;-77
2021/01/02 10:07:20;;;;;;;17.17;15.47;;;;;;;4.95;62.99;97486.69;8302187;28;20197;-77
2021/01/02 10:11:22;;;;;;;17.17;14.87;;;;;;;5.07;62.88;97486.34;8300171;28;20689;-78
2021/01/02 10:15:25;;;;;;;16.73;15.03;;;;;;;5.04;63.19;97496.69;8306115;28;20593;-78
2021/01/02 10:19:26;;;;;;;15.70;14.10;;;;;;;4.98;63.03;97497.72;8309884;28;20646;-78
2021/01/02 10:23:28;;;;;;;15.80;14.20;;;;;;;5.13;62.78;97488.72;8278507;28;20221;-77
2021/01/02 10:27:30;;;;;;;15.67;14.07;;;;;;;5.13;62.83;97488.72;8286756;28;20201;-78
2021/01/02 10:31:32;;;;;;;16.47;14.87;;;;;;;4.98;62.87;97496.88;8304234;28;20208;-78
2021/01/02 10:35:34;;;;;;;16.23;14.53;;;;;;;5.21;62.68;97488.50;8304786;28;20217;-77
2021/01/02 10:39:37;;;;;;;15.17;13.67;;;;;;;5.39;62.17;97495.63;8304158;28;20618;-77
2021/01/02 10:43:39;;;;;;;16.53;14.07;;;;;;;5.33;62.48;97495.84;8303733;28;20221;-77
2021/01/02 10:47:41;;;;;;;15.87;14.27;;;;;;;5.23;61.89;97492.69;8303157;28;20205;-77
2021/01/02 10:51:45;;;;;;;16.33;13.37;;;;;;;5.44;62.20;97490.34;8303731;28;20216;-78
2021/01/02 10:55:46;;;;;;;16.37;14.63;;;;;;;5.43;62.37;97479.25;8304017;28;20205;-77
2021/01/02 10:59:49;;;;;;;16.17;14.57;;;;;;;5.52;61.88;97485.81;8303161;28;20205;-77
2021/01/02 11:03:51;;;;;;;15.67;14.07;;;;;;;5.52;61.90;97479.84;8303430;28;20308;-77
2021/01/02 11:07:53;;;;;;;15.67;14.17;;;;;;;5.42;62.43;97476.72;8303474;28;20201;-77
2021/01/02 11:11:55;;;;;;;16.70;14.90;;;;;;;5.39;62.21;97466.56;8302860;28;20283;-77
2021/01/02 11:15:57;;;;;;;17.07;15.37;;;;;;;5.55;62.12;97467.72;8296408;28;20785;-78
2021/01/02 11:20:00;;;;;;;16.10;14.50;;;;;;;5.54;61.88;97465.22;8288398;28;20715;-78
2021/01/02 11:24:02;;;;;;;16.10;14.50;;;;;;;5.76;61.51;97457.66;8295340;28;20221;-78
2021/01/02 11:28:04;;;;;;;16.57;14.83;;;;;;;5.86;61.37;97448.72;8304014;28;20247;-78
2021/01/02 11:32:07;;;;;;;17.13;15.43;;;;;;;6.07;60.12;97448.06;8302102;28;20321;-77
2021/01/02 11:36:11;;;;;;;16.07;14.37;;;;;;;6.02;60.39;97443.97;8302297;28;20524;-77
2021/01/02 11:40:13;;;;;;;15.70;14.20;;;;;;;6.16;60.30;97438.34;8303608;28;20205;-78
2021/01/02 11:44:18;;;;;;;15.27;13.70;;;;;;;6.45;59.75;97440.72;8303050;28;20225;-78
2021/01/02 11:48:20;;;;;;;14.97;13.50;;;;;;;6.36;59.04;97435.03;8302222;28;20201;-78
2021/01/02 11:52:22;;;;;;;16.30;14.70;;;;;;;6.60;59.06;97433.31;8299745;28;20560;-78
2021/01/02 11:56:27;;;;;;;15.87;14.27;;;;;;;6.06;59.03;97420.66;8302843;28;20205;-78
2021/01/02 12:00:30;;;;;;;14.67;13.23;;;;;;;6.13;59.56;97417.88;8303767;28;20201;-81
2021/01/02 12:04:32;;;;;;;14.87;13.47;;;;;;;5.92;58.94;97417.72;8306813;28;20229;-79
2021/01/02 12:08:34;;;;;;;13.53;12.23;;;;;;;6.07;58.06;97416.34;8303536;28;20204;-77
2021/01/02 12:12:36;;;;;;;13.67;12.37;;;;;;;6.09;57.62;97413.72;8301046;28;20225;-77
2021/01/02 12:16:39;;;;;;;12.87;11.57;;;;;;;6.30;57.51;97415.53;8300514;28;20229;-77
2021/01/02 12:20:41;;;;;;;13.77;12.37;;;;;;;6.14;56.99;97404.97;8300466;28;20201;-77
2021/01/02 12:24:43;;;;;;;11.63;10.47;;;;;;;6.16;54.76;97410.06;8302114;28;20232;-78
2021/01/02 12:28:46;;;;;;;11.17;10.07;;;;;;;6.36;54.92;97399.91;8299487;28;20692;-77
2021/01/02 12:32:48;;;;;;;9.97;8.90;;;;;;;6.29;54.87;97413.03;8300590;28;20251;-77
2021/01/02 12:36:50;;;;;;;10.33;9.33;;;;;;;5.70;54.82;97401.34;8300894;28;20201;-77
2021/01/02 12:40:53;;;;;;;10.33;9.33;;;;;;;5.34;56.67;97406.78;8298987;28;20221;-77
2021/01/02 12:44:55;;;;;;;10.33;8.33;;;;;;;5.71;67.62;97400.44;8303698;28;20229;-79
2021/01/02 12:48:57;;;;;;;11.20;8.33;;;;;;;7.44;59.09;97401.75;8306071;28;20208;-79
2021/01/02 12:52:58;;;;;;;8.63;7.73;;;;;;;8.38;53.27;97394.34;8299295;28;20239;-78
2021/01/02 12:57:01;;;;;;;9.97;7.33;;;;;;;9.03;52.87;97384.50;8300991;28;20211;-76
2021/01/02 13:01:03;;;;;;;10.00;9.00;;;;;;;7.24;50.19;97388.84;8300198;28;20641;-76
2021/01/02 13:05:06;;;;;;;9.03;8.23;;;;;;;6.67;52.07;97387.63;8292298;28;20351;-76
2021/01/02 13:09:08;;;;;;;9.93;8.93;;;;;;;6.52;53.27;97386.47;8293887;28;20217;-76
2021/01/02 13:13:11;;;;;;;9.50;8.50;;;;;;;6.28;54.07;97386.47;8298911;28;20256;-76
2021/01/02 13:17:14;;;;;;;10.40;9.43;;;;;;;6.25;54.51;97395.13;8300389;28;20197;-75
2021/01/02 13:21:16;;;;;;;10.73;9.63;;;;;;;6.19;54.44;97397.94;8298149;28;20197;-76
2021/01/02 13:25:19;;;;;;;11.00;10.00;;;;;;;5.97;54.89;97397.00;8298748;28;20197;-75
2021/01/02 13:29:26;;;;;;;11.87;10.47;;;;;;;5.81;55.21;97399.25;8298085;28;20209;-75
2021/01/02 13:33:28;;;;;;;12.30;11.10;;;;;;;5.84;54.97;97388.84;8269152;28;20241;-75
2021/01/02 13:37:30;;;;;;;30.73;20.10;;;;;;;5.41;55.90;97393.72;8288107;28;20216;-75
2021/01/02 13:41:31;;;;;;;12.30;10.83;;;;;;;4.98;56.33;97400.19;8301070;28;20208;-75
2021/01/02 13:45:34;;;;;;;15.80;12.03;;;;;;;4.99;57.02;97389.06;8304075;28;20570;-75
2021/01/02 13:49:36;;;;;;;14.93;12.37;;;;;;;4.98;55.62;97392.50;8305392;28;20197;-75
2021/01/02 13:53:38;;;;;;;15.03;13.43;;;;;;;4.64;57.40;97395.25;8305500;28;20216;-75
2021/01/02 13:57:39;;;;;;;18.57;15.60;;;;;;;4.78;57.34;97388.00;8305094;28;20209;-75
2021/01/02 14:01:42;;;;;;;21.30;17.27;;;;;;;4.89;56.75;97383.38;8304247;28;20225;-76
2021/01/02 14:05:44;;;;;;;22.53;18.63;;;;;;;4.45;58.06;97382.97;8303870;28;20674;-75
2021/01/02 14:09:45;;;;;;;24.70;19.27;;;;;;;4.68;57.57;97373.75;8304788;28;20200;-75
2021/01/02 14:13:48;;;;;;;28.43;23.13;;;;;;;4.66;58.07;97371.25;8282651;28;20244;-75
2021/01/02 14:18:09;;;;;;;24.43;18.83;;;;;;;4.85;57.53;97370.66;8299551;28;20215;-75
2021/01/02 14:22:11;;;;;;;27.13;20.27;;;;;;;4.69;57.75;97372.88;8272332;28;20229;-75
2021/01/02 14:26:15;;;;;;;28.13;21.73;;;;;;;4.89;57.33;97367.13;8271647;28;20288;-75
2021/01/02 14:30:17;;;;;;;24.57;20.70;;;;;;;4.82;56.82;97361.34;8271895;28;20208;-76
2021/01/02 14:34:21;;;;;;;28.97;22.63;;;;;;;5.03;57.43;97359.00;8271644;28;20214;-76
2021/01/02 14:38:23;;;;;;;25.27;21.40;;;;;;;5.03;56.87;97346.19;8271501;28;20208;-75
2021/01/02 14:42:25;;;;;;;24.07;20.70;;;;;;;5.03;57.05;97348.75;8271692;28;20693;-76
2021/01/02 14:46:30;;;;;;;24.27;20.17;;;;;;;4.82;57.00;97356.22;8271752;28;20669;-76
2021/01/02 14:50:33;;;;;;;31.50;24.43;;;;;;;4.90;57.15;97356.81;8271434;28;20202;-76
2021/01/02 14:54:34;;;;;;;25.63;20.20;;;;;;;4.93;57.24;97350.78;8274872;28;20384;-76
2021/01/02 14:58:36;;;;;;;24.90;20.47;;;;;;;4.95;57.38;97346.41;8271050;28;20206;-76
2021/01/02 15:02:38;;;;;;;25.70;21.17;;;;;;;5.11;57.45;97348.50;8282293;28;20229;-76
2021/01/02 15:06:41;;;;;;;28.40;22.17;;;;;;;5.03;56.54;97347.00;8303688;28;20201;-76
2021/01/02 15:10:42;;;;;;;27.53;21.13;;;;;;;5.34;56.67;97345.16;8302723;28;20653;-76
2021/01/02 15:14:44;;;;;;;25.77;19.97;;;;;;;5.25;56.65;97348.88;8302960;28;20688;-76
2021/01/02 15:18:46;;;;;;;25.83;20.07;;;;;;;5.32;56.15;97345.22;8303112;28;20201;-76
2021/01/02 15:22:48;;;;;;;26.07;20.73;;;;;;;5.17;56.11;97351.69;8302763;28;20577;-76
2021/01/02 15:26:50;;;;;;;24.23;19.50;;;;;;;4.84;56.57;97349.31;8302667;28;20201;-76
2021/01/02 15:30:53;;;;;;;26.90;20.77;;;;;;;4.98;56.64;97350.59;8302718;28;20201;-76
2021/01/02 15:34:55;;;;;;;25.67;19.50;;;;;;;4.95;57.02;97355.81;8302051;28;20216;-76
2021/01/02 15:38:58;;;;;;;27.70;20.97;;;;;;;4.89;56.85;97344.88;8299961;28;20228;-76
2021/01/02 15:43:00;;;;;;;28.57;21.43;;;;;;;4.83;57.11;97346.78;8269319;28;20233;-77
2021/01/02 15:47:06;;;;;;;25.17;20.30;;;;;;;4.85;56.80;97337.31;8269283;28;20202;-76
2021/01/02 15:51:08;;;;;;;26.97;19.93;;;;;;;5.06;56.77;97343.50;8269486;28;20584;-76
2021/01/02 15:55:11;;;;;;;29.97;18.73;;;;;;;6.05;76.30;97343.59;8269084;28;20206;-76
2021/01/02 15:59:13;;;;;;;29.87;22.20;;;;;;;5.30;56.55;97326.47;8269142;28;20580;-77
2021/01/02 16:03:15;;;;;;;24.37;18.80;;;;;;;5.11;55.82;97326.22;8299162;28;20291;-76
2021/01/02 16:07:16;;;;;;;22.57;18.83;;;;;;;5.05;56.26;97332.41;8302286;28;20205;-76
2021/01/02 16:11:25;;;;;;;19.10;16.67;;;;;;;5.31;56.27;97327.28;8301177;28;20677;-75
2021/01/02 16:15:27;;;;;;;21.40;17.20;;;;;;;5.15;56.33;97320.09;8301765;28;20255;-76
2021/01/02 16:19:29;;;;;;;22.17;17.77;;;;;;;5.32;56.02;97321.28;8300940;28;20205;-76
2021/01/02 16:23:31;;;;;;;23.43;20.47;;;;;;;4.89;56.72;97329.50;8301052;28;20580;-77
2021/01/02 16:27:33;;;;;;;24.17;21.27;;;;;;;5.07;56.60;97325.47;8300467;28;20727;-76
2021/01/02 16:31:44;;;;;;;22.27;19.20;;;;;;;5.04;55.97;97317.88;8300677;28;20208;-77
2021/01/02 16:35:46;;;;;;;21.47;18.43;;;;;;;5.26;56.22;97327.47;8295999;28;20244;-76
2021/01/02 16:39:49;;;;;;;21.43;18.87;;;;;;;5.13;55.57;97319.31;8296588;28;20228;-77
2021/01/02 16:43:52;;;;;;;21.93;17.70;;;;;;;5.16;55.22;97316.66;8300899;28;20225;-76
2021/01/02 16:47:55;;;;;;;21.90;17.90;;;;;;;5.06;55.80;97325.53;8299725;28;20208;-76
2021/01/02 16:51:58;;;;;;;21.57;17.07;;;;;;;5.12;55.80;97314.22;8300194;28;20204;-76
2021/01/02 16:56:00;;;;;;;22.87;18.53;;;;;;;5.18;56.06;97314.00;8300026;28;20649;-76
2021/01/02 17:00:05;;;;;;;18.63;16.47;;;;;;;5.19;55.42;97308.00;8299247;28;20193;-76
2021/01/02 17:04:07;;;;;;;24.00;20.77;;;;;;;5.30;55.61;97318.75;8299746;28;20220;-76
2021/01/02 17:08:09;;;;;;;23.93;19.90;;;;;;;5.26;55.65;97315.44;8300359;28;20200;-76
2021/01/02 17:12:12;;;;;;;22.37;18.80;;;;;;;5.19;54.82;97308.00;8299886;28;20228;-77
2021/01/02 17:16:22;;;;;;;23.27;17.60;;;;;;;4.93;55.10;97307.16;8304202;28;20232;-76
2021/01/02 17:20:23;;;;;;;23.17;17.47;;;;;;;5.18;55.45;97301.19;8306702;28;20581;-76
2021/01/02 17:24:26;;;;;;;21.53;17.60;;;;;;;5.21;55.67;97298.53;8306677;28;20220;-76
2021/01/02 17:28:28;;;;;;;22.03;17.17;;;;;;;4.98;55.72;97306.97;8305955;28;20209;-77
2021/01/02 17:32:31;;;;;;;24.00;18.70;;;;;;;4.90;56.03;97308.06;8306168;28;20213;-76
2021/01/02 17:36:34;;;;;;;22.30;18.30;;;;;;;5.00;55.81;97305.19;8305771;28;20568;-76
2021/01/02 17:40:36;;;;;;;21.87;18.47;;;;;;;5.05;56.43;97299.03;8305596;28;20208;-77
2021/01/02 17:44:41;;;;;;;21.73;17.83;;;;;;;5.26;55.87;97300.03;8305788;28;20291;-77
2021/01/02 17:48:43;;;;;;;23.17;18.40;;;;;;;5.13;55.62;97298.78;8305617;28;20201;-76
2021/01/02 17:52:46;;;;;;;18.87;16.27;;;;;;;5.23;55.83;97294.16;8305150;28;20248;-77
2021/01/02 17:56:49;;;;;;;18.50;15.57;;;;;;;5.17;56.05;97305.47;8305594;28;20293;-76
2021/01/02 18:00:51;;;;;;;20.63;18.20;;;;;;;5.73;53.49;97309.59;8303892;28;20721;-78
2021/01/02 18:04:53;;;;;;;19.87;16.97;;;;;;;4.98;55.88;97318.06;8305781;28;20228;-77
2021/01/02 18:08:56;;;;;;;21.30;17.77;;;;;;;4.99;56.12;97334.31;8305685;28;20343;-77
2021/01/02 18:12:58;;;;;;;22.57;19.17;;;;;;;4.72;55.58;97331.72;8304891;28;20236;-77
2021/01/02 18:17:01;;;;;;;18.93;16.13;;;;;;;4.91;55.27;97339.69;8304778;28;20201;-78
2021/01/02 18:21:08;;;;;;;21.87;17.97;;;;;;;4.75;55.34;97341.06;8304871;28;20205;-77
2021/01/02 18:25:11;;;;;;;28.13;21.93;;;;;;;4.64;55.67;97333.69;8304125;28;20221;-77
2021/01/02 18:29:13;;;;;;;21.30;17.77;;;;;;;4.66;55.22;97335.34;8303850;28;20189;-76
2021/01/02 18:33:15;;;;;;;22.50;18.07;;;;;;;4.40;55.87;97336.13;8304297;28;20224;-77
2021/01/02 18:37:17;;;;;;;18.67;16.03;;;;;;;4.61;55.23;97344.91;8303724;28;20201;-77
2021/01/02 18:41:21;;;;;;;19.43;15.03;;;;;;;4.10;56.47;97341.25;8303602;28;20201;-77
2021/01/02 18:45:24;;;;;;;20.87;17.70;;;;;;;4.61;55.03;97337.19;8303770;28;20267;-77
2021/01/02 18:49:25;;;;;;;21.57;17.80;;;;;;;4.56;55.66;97339.06;8303469;28;20229;-77
2021/01/02 18:53:28;;;;;;;18.57;16.43;;;;;;;4.36;56.37;97331.97;8303161;28;20201;-77
2021/01/02 18:57:30;;;;;;;23.93;18.43;;;;;;;4.47;56.39;97335.06;8303476;28;20201;-77